Weather at University of Illinois Willard Airport

Public forecast

Using degrees Fahrenheit for public forecast. Weather courtesy of forecast.io.

Current aviation weather report (METAR) for University of Illinois Willard Airport

Retrieved 2021/05/11 23:53 UTC (48 minutes ago):

KCMI 112353Z 05013KT 10SM CLR 12/M01 A3032 RMK AO2 SLP270 T01221006 10156 20122 53010

Aviation forecast (TAF) for University of Illinois Willard Airport

Retrieved 2021-05-12 00:21 UTC (20 minutes ago):

TAF KCMI 112320Z 1200/1224 05009KT P6SM SCT250